createdAt,value
2022-09-01T00:01:15.063Z,15.20
2022-09-01T00:04:03.999Z,15.10
2022-09-01T00:06:51.728Z,15.10
2022-09-01T00:09:40.692Z,15.00
2022-09-01T00:12:29.819Z,15.00
2022-09-01T00:15:17.473Z,15.00
2022-09-01T00:18:05.138Z,14.90
2022-09-01T00:20:52.777Z,14.90
2022-09-01T00:23:40.698Z,14.90
2022-09-01T00:26:28.718Z,14.80
2022-09-01T00:29:16.647Z,14.80
2022-09-01T00:32:05.059Z,14.80
2022-09-01T00:34:52.677Z,14.80
2022-09-01T00:37:40.392Z,14.80
2022-09-01T00:40:28.153Z,14.80
2022-09-01T00:43:22.503Z,14.70
2022-09-01T00:46:20.348Z,14.70
2022-09-01T00:49:40.692Z,14.70
2022-09-01T00:52:45.962Z,14.70
2022-09-01T00:55:38.457Z,14.60
2022-09-01T00:58:27.178Z,14.60
2022-09-01T01:01:15.814Z,14.60
2022-09-01T01:04:15.031Z,14.50
2022-09-01T01:07:03.269Z,14.40
2022-09-01T01:09:51.937Z,14.40
2022-09-01T01:12:40.607Z,14.40
2022-09-01T01:15:29.798Z,14.40
2022-09-01T01:18:23.419Z,14.50
2022-09-01T01:21:39.842Z,14.60
2022-09-01T01:24:32.777Z,14.60
2022-09-01T01:27:22.027Z,14.60
2022-09-01T01:30:12.398Z,14.60
2022-09-01T01:33:01.197Z,14.60
2022-09-01T01:35:53.311Z,14.60
2022-09-01T01:38:46.967Z,14.50
2022-09-01T01:41:39.617Z,14.60
2022-09-01T01:44:28.423Z,14.60
2022-09-01T01:47:17.973Z,14.60
2022-09-01T01:50:09.493Z,14.60
2022-09-01T01:52:59.900Z,14.60
2022-09-01T01:55:51.987Z,14.60
2022-09-01T01:58:40.614Z,14.50
2022-09-01T02:01:32.311Z,14.60
2022-09-01T02:04:21.475Z,14.60
2022-09-01T02:07:13.946Z,14.60
2022-09-01T02:10:02.025Z,14.60
2022-09-01T02:12:49.901Z,14.60
2022-09-01T02:15:45.655Z,14.60
2022-09-01T02:18:38.036Z,14.60
2022-09-01T02:21:27.828Z,14.60
2022-09-01T02:24:16.212Z,14.60
2022-09-01T02:27:05.638Z,14.60
2022-09-01T02:29:55.502Z,14.60
2022-09-01T02:32:43.888Z,14.60
2022-09-01T02:35:34.410Z,14.70
2022-09-01T02:38:26.248Z,14.70
2022-09-01T02:41:16.119Z,14.70
2022-09-01T02:44:11.838Z,14.70
2022-09-01T02:47:02.012Z,14.70
2022-09-01T02:49:51.248Z,14.60
2022-09-01T02:52:40.678Z,14.60
2022-09-01T02:55:28.313Z,14.50
2022-09-01T02:58:20.564Z,14.50
2022-09-01T03:01:25.134Z,14.40
2022-09-01T03:04:13.412Z,14.30
2022-09-01T03:07:04.368Z,14.20
2022-09-01T03:09:52.887Z,14.30
2022-09-01T03:12:40.398Z,14.20
2022-09-01T03:15:28.686Z,14.20
2022-09-01T03:18:18.888Z,14.10
2022-09-01T03:21:08.668Z,14.00
2022-09-01T03:23:58.272Z,13.90
2022-09-01T03:26:49.754Z,13.90
2022-09-01T03:29:38.389Z,13.80
2022-09-01T03:32:25.887Z,13.60
2022-09-01T03:35:14.019Z,13.60
2022-09-01T03:38:03.848Z,13.40
2022-09-01T03:41:01.950Z,13.40
2022-09-01T03:43:51.330Z,13.20
2022-09-01T03:46:40.552Z,13.20
2022-09-01T03:49:28.981Z,13.10
2022-09-01T03:52:17.926Z,13.00
2022-09-01T03:55:06.272Z,13.00
2022-09-01T03:58:00.991Z,13.00
2022-09-01T04:00:55.526Z,13.00
2022-09-01T04:03:47.811Z,13.00
2022-09-01T04:06:37.453Z,13.00
2022-09-01T04:09:24.968Z,13.00
2022-09-01T04:12:16.028Z,13.00
2022-09-01T04:15:06.131Z,12.90
2022-09-01T04:18:20.540Z,12.90
2022-09-01T04:21:09.152Z,12.90
2022-09-01T04:24:02.788Z,12.80
2022-09-01T04:26:52.688Z,12.80
2022-09-01T04:29:41.941Z,12.80
2022-09-01T04:32:29.401Z,12.80
2022-09-01T04:35:17.277Z,12.80
2022-09-01T04:38:05.952Z,12.80
2022-09-01T04:40:57.628Z,12.90
2022-09-01T04:43:47.518Z,12.90
2022-09-01T04:46:42.370Z,12.90
2022-09-01T04:49:33.962Z,12.90
2022-09-01T04:52:21.477Z,13.00
2022-09-01T04:55:21.443Z,13.00
2022-09-01T04:58:11.055Z,13.10
2022-09-01T05:01:00.530Z,13.10
2022-09-01T05:04:03.960Z,13.20
2022-09-01T05:07:01.760Z,13.20
2022-09-01T05:09:49.383Z,13.30
2022-09-01T05:12:37.177Z,13.30
2022-09-01T05:15:24.861Z,13.40
2022-09-01T05:18:28.188Z,13.50
2022-09-01T05:21:22.621Z,13.50
2022-09-01T05:24:10.871Z,13.60
2022-09-01T05:27:00.552Z,13.70
2022-09-01T05:29:49.847Z,13.70
2022-09-01T05:32:39.957Z,13.80
2022-09-01T05:35:32.922Z,13.90
2022-09-01T05:38:21.006Z,14.00
2022-09-01T05:41:15.053Z,14.00
2022-09-01T05:44:07.234Z,14.00
2022-09-01T05:46:58.180Z,14.00
2022-09-01T05:49:45.798Z,14.10
2022-09-01T05:52:37.737Z,14.10
2022-09-01T05:55:27.792Z,14.20
2022-09-01T05:58:17.501Z,14.30
2022-09-01T06:01:06.070Z,14.40
2022-09-01T06:03:56.634Z,14.50
2022-09-01T06:07:06.959Z,14.60
2022-09-01T06:09:55.127Z,14.60
2022-09-01T06:12:43.288Z,14.70
2022-09-01T06:15:32.442Z,14.90
2022-09-01T06:18:21.845Z,15.00
2022-09-01T06:21:14.941Z,15.30
2022-09-01T06:24:06.332Z,15.40
2022-09-01T06:26:55.013Z,15.70
2022-09-01T06:29:42.568Z,15.90
2022-09-01T06:32:30.052Z,15.90
2022-09-01T06:35:19.144Z,16.10
2022-09-01T06:38:07.295Z,16.30
2022-09-01T06:41:04.327Z,16.40
2022-09-01T06:43:53.947Z,16.50
2022-09-01T06:46:41.798Z,16.70
2022-09-01T06:49:35.878Z,16.80
2022-09-01T06:52:24.028Z,17.00
2022-09-01T06:55:14.647Z,17.00
2022-09-01T06:58:06.598Z,17.10
2022-09-01T07:00:54.758Z,17.20
2022-09-01T07:03:45.067Z,17.20
2022-09-01T07:09:47.923Z,17.40
2022-09-01T07:12:37.892Z,17.60
2022-09-01T07:18:34.562Z,17.90
2022-09-01T07:21:40.792Z,18.20
2022-09-01T07:24:31.906Z,18.40
2022-09-01T07:27:20.078Z,18.80
2022-09-01T07:30:12.783Z,18.80
2022-09-01T07:33:41.529Z,18.70
2022-09-01T07:45:33.113Z,18.60
2022-09-01T07:49:01.317Z,18.90
2022-09-01T07:51:36.810Z,19.30
2022-09-01T07:54:25.379Z,19.70
2022-09-01T07:57:13.072Z,19.80
2022-09-01T08:00:00.922Z,20.00
2022-09-01T08:02:52.032Z,20.00
2022-09-01T08:05:43.572Z,20.00
2022-09-01T08:08:31.247Z,20.30
2022-09-01T08:11:58.257Z,20.10
2022-09-01T08:14:34.533Z,20.10
2022-09-01T08:17:51.245Z,20.10
2022-09-01T08:20:30.553Z,20.10
2022-09-01T08:23:20.139Z,20.20
2022-09-01T08:26:17.258Z,20.00
2022-09-01T08:29:05.070Z,20.00
2022-09-01T08:31:53.489Z,20.20
2022-09-01T08:34:41.738Z,20.40
2022-09-01T08:37:29.253Z,20.60
2022-09-01T08:40:20.804Z,20.90
2022-09-01T08:43:32.432Z,21.30
2022-09-01T08:46:27.974Z,21.60
2022-09-01T08:49:26.837Z,21.60
2022-09-01T08:52:32.453Z,21.30
2022-09-01T08:55:39.392Z,21.20
2022-09-01T08:58:32.573Z,21.30
2022-09-01T09:02:02.127Z,21.40
2022-09-01T09:05:23.173Z,21.40
2022-09-01T09:08:43.668Z,21.30
2022-09-01T09:11:59.553Z,21.00
2022-09-01T09:15:15.403Z,21.00
2022-09-01T09:18:39.452Z,20.90
2022-09-01T09:21:36.333Z,20.60
2022-09-01T09:24:56.373Z,20.70
2022-09-01T09:28:00.440Z,20.80
2022-09-01T09:30:48.715Z,20.80
2022-09-01T09:33:51.889Z,20.70
2022-09-01T09:36:41.782Z,20.80
2022-09-01T09:39:29.528Z,20.90
2022-09-01T09:42:17.613Z,21.00
2022-09-01T09:45:26.773Z,21.30
2022-09-01T09:48:34.260Z,21.50
2022-09-01T09:51:23.320Z,21.90
2022-09-01T09:54:18.268Z,22.10
2022-09-01T09:57:08.819Z,22.30
2022-09-01T10:00:24.572Z,22.40
2022-09-01T10:03:14.113Z,22.50
2022-09-01T10:06:02.328Z,22.40
2022-09-01T10:08:50.718Z,22.20
2022-09-01T10:11:49.039Z,22.20
2022-09-01T10:14:53.353Z,22.30
2022-09-01T10:17:45.066Z,22.20
2022-09-01T10:20:38.653Z,22.00
2022-09-01T10:23:30.931Z,22.10
2022-09-01T10:26:33.952Z,22.30
2022-09-01T10:29:48.984Z,22.40
2022-09-01T10:32:55.018Z,22.50
2022-09-01T10:35:54.538Z,22.40
2022-09-01T10:38:52.619Z,21.70
2022-09-01T10:42:07.575Z,21.30
2022-09-01T10:45:02.132Z,21.10
2022-09-01T10:47:50.139Z,21.20
2022-09-01T10:50:37.712Z,21.30
2022-09-01T10:53:34.495Z,21.20
2022-09-01T10:56:45.228Z,21.20
2022-09-01T10:59:44.320Z,21.10
2022-09-01T11:02:46.380Z,21.30
2022-09-01T11:06:12.546Z,21.20
2022-09-01T11:09:06.855Z,21.40
2022-09-01T11:12:31.353Z,21.60
2022-09-01T11:15:18.788Z,21.60
2022-09-01T11:18:31.404Z,21.80
2022-09-01T11:21:31.212Z,21.90
2022-09-01T11:24:41.357Z,22.20
2022-09-01T11:27:48.513Z,22.50
2022-09-01T11:31:08.889Z,22.50
2022-09-01T11:34:23.432Z,22.40
2022-09-01T11:37:20.193Z,22.40
2022-09-01T11:40:10.211Z,22.50
2022-09-01T11:43:04.500Z,22.70
2022-09-01T11:46:16.812Z,23.10
2022-09-01T11:49:17.610Z,23.60
2022-09-01T11:52:06.717Z,23.40
2022-09-01T11:54:54.849Z,22.70
2022-09-01T11:57:42.716Z,22.10
2022-09-01T12:00:38.642Z,21.90
2022-09-01T12:03:30.241Z,21.70
2022-09-01T12:06:31.882Z,21.70
2022-09-01T12:09:19.537Z,21.50
2022-09-01T12:12:27.027Z,21.50
2022-09-01T12:15:27.528Z,21.40
2022-09-01T12:18:27.976Z,21.30
2022-09-01T12:21:26.256Z,21.00
2022-09-01T12:24:22.077Z,20.50
2022-09-01T12:27:09.914Z,20.20
2022-09-01T12:29:58.913Z,20.10
2022-09-01T12:32:47.612Z,20.10
2022-09-01T12:35:35.617Z,20.20
2022-09-01T12:38:28.778Z,20.30
2022-09-01T12:41:39.537Z,20.30
2022-09-01T12:44:30.370Z,20.40
2022-09-01T12:47:33.711Z,20.40
2022-09-01T12:50:27.357Z,20.50
2022-09-01T12:53:20.170Z,20.50
2022-09-01T12:56:32.677Z,20.50
2022-09-01T12:59:37.284Z,20.50
2022-09-01T13:02:37.551Z,20.50
2022-09-01T13:05:33.583Z,20.20
2022-09-01T13:08:36.083Z,19.90
2022-09-01T13:11:24.939Z,19.90
2022-09-01T13:14:12.948Z,19.90
2022-09-01T13:17:01.127Z,19.90
2022-09-01T13:19:48.664Z,20.00
2022-09-01T13:22:37.412Z,20.00
2022-09-01T13:25:25.412Z,20.00
2022-09-01T13:28:14.868Z,20.00
2022-09-01T13:34:22.031Z,20.10
2022-09-01T13:37:11.283Z,20.10
2022-09-01T13:39:58.789Z,20.20
2022-09-01T13:42:50.406Z,20.30
2022-09-01T13:45:41.889Z,20.30
2022-09-01T13:49:02.411Z,20.30
2022-09-01T13:51:37.664Z,20.40
2022-09-01T13:54:25.173Z,20.40
2022-09-01T13:57:12.853Z,20.50
2022-09-01T14:00:00.758Z,20.50
2022-09-01T14:02:53.488Z,20.60
2022-09-01T14:05:45.129Z,20.70
2022-09-01T14:08:34.549Z,20.70
2022-09-01T14:11:22.008Z,20.80
2022-09-01T14:14:09.538Z,20.90
2022-09-01T14:16:57.317Z,20.90
2022-09-01T14:19:51.237Z,20.90
2022-09-01T14:22:42.527Z,20.90
2022-09-01T14:25:31.379Z,21.00
2022-09-01T14:28:22.216Z,21.00
2022-09-01T14:31:15.022Z,20.90
2022-09-01T14:34:02.517Z,21.00
2022-09-01T14:36:50.709Z,20.90
2022-09-01T14:39:39.032Z,20.80
2022-09-01T14:42:29.193Z,20.90
2022-09-01T14:45:20.433Z,20.80
2022-09-01T14:48:09.277Z,20.80
2022-09-01T14:50:56.733Z,20.60
2022-09-01T14:53:44.232Z,20.60
2022-09-01T14:56:31.726Z,20.50
2022-09-01T14:59:20.378Z,20.50
2022-09-01T15:02:10.121Z,20.50
2022-09-01T15:04:57.767Z,20.50
2022-09-01T15:07:46.373Z,20.50
2022-09-01T15:10:34.372Z,20.40
2022-09-01T15:13:21.965Z,20.40
2022-09-01T15:16:22.513Z,20.30
2022-09-01T15:19:13.598Z,20.30
2022-09-01T15:22:01.194Z,20.30
2022-09-01T15:24:48.723Z,20.20
2022-09-01T15:27:40.854Z,20.20
2022-09-01T15:30:29.456Z,20.10
2022-09-01T15:33:17.388Z,20.00
2022-09-01T15:36:05.093Z,20.00
2022-09-01T15:38:53.231Z,19.90
2022-09-01T15:41:40.872Z,19.90
2022-09-01T15:44:29.717Z,19.80
2022-09-01T15:47:18.328Z,19.80
2022-09-01T15:50:10.463Z,19.70
2022-09-01T15:53:08.605Z,19.80
2022-09-01T15:55:56.223Z,19.70
2022-09-01T15:59:00.396Z,19.60
2022-09-01T16:01:49.537Z,19.70
2022-09-01T16:04:37.403Z,19.70
2022-09-01T16:07:24.967Z,19.60
2022-09-01T16:10:14.305Z,19.50
2022-09-01T16:13:02.177Z,19.40
2022-09-01T16:16:05.999Z,19.30
2022-09-01T16:19:06.533Z,19.10
2022-09-01T16:22:35.048Z,19.10
2022-09-01T16:25:32.064Z,19.00
2022-09-01T16:28:35.866Z,18.90
2022-09-01T16:31:31.512Z,19.00
2022-09-01T16:34:19.143Z,19.00
2022-09-01T16:37:43.817Z,19.00
2022-09-01T16:40:51.453Z,19.00
2022-09-01T16:44:00.399Z,19.00
2022-09-01T16:47:23.418Z,19.00
2022-09-01T16:50:19.737Z,18.90
2022-09-01T16:53:26.194Z,18.90
2022-09-01T16:56:35.474Z,18.90
2022-09-01T16:59:56.748Z,18.80
2022-09-01T17:03:18.304Z,18.80
2022-09-01T17:06:50.523Z,18.70
2022-09-01T17:10:16.228Z,18.60
2022-09-01T17:13:41.088Z,18.60
2022-09-01T17:16:38.733Z,18.50
2022-09-01T17:19:28.093Z,18.50
2022-09-01T17:22:16.368Z,18.40
2022-09-01T17:25:12.729Z,18.30
2022-09-01T17:28:15.188Z,18.20
2022-09-01T17:31:14.880Z,18.10
2022-09-01T17:34:24.081Z,18.10
2022-09-01T17:37:56.344Z,17.90
2022-09-01T17:41:07.089Z,17.90
2022-09-01T17:44:22.413Z,17.80
2022-09-01T17:47:52.037Z,17.70
2022-09-01T17:51:07.273Z,17.70
2022-09-01T17:54:52.747Z,17.60
2022-09-01T17:58:01.323Z,17.50
2022-09-01T18:01:03.284Z,17.50
2022-09-01T18:03:54.032Z,17.50
2022-09-01T18:07:26.427Z,17.60
2022-09-01T18:10:24.852Z,17.60
2022-09-01T18:13:54.201Z,17.60
2022-09-01T18:17:17.802Z,17.70
2022-09-01T18:20:16.869Z,17.70
2022-09-01T18:23:07.369Z,17.70
2022-09-01T18:26:06.548Z,17.70
2022-09-01T18:28:57.699Z,17.70
2022-09-01T18:32:05.769Z,17.70
2022-09-01T18:35:22.088Z,17.70
2022-09-01T18:38:38.893Z,17.60
2022-09-01T18:42:09.462Z,17.50
2022-09-01T18:45:56.762Z,17.50
2022-09-01T18:49:17.791Z,17.40
2022-09-01T18:52:31.388Z,17.40
2022-09-01T18:55:36.009Z,17.30
2022-09-01T18:59:06.603Z,17.20
2022-09-01T19:02:22.021Z,17.10
2022-09-01T19:05:33.219Z,17.00
2022-09-01T19:08:39.054Z,17.00
2022-09-01T19:11:54.590Z,16.90
2022-09-01T19:15:15.550Z,16.90
2022-09-01T19:18:15.758Z,16.80
2022-09-01T19:21:25.353Z,16.70
2022-09-01T19:24:46.223Z,16.70
2022-09-01T19:27:36.738Z,16.60
2022-09-01T19:30:24.378Z,16.60
2022-09-01T19:33:16.723Z,16.50
2022-09-01T19:36:11.354Z,16.50
2022-09-01T19:38:59.422Z,16.50
2022-09-01T19:41:57.793Z,16.50
2022-09-01T19:44:57.033Z,16.60
2022-09-01T19:48:19.589Z,16.60
2022-09-01T19:51:29.637Z,16.70
2022-09-01T19:54:54.317Z,16.70
2022-09-01T19:58:24.661Z,16.70
2022-09-01T20:01:23.401Z,16.70
2022-09-01T20:04:33.757Z,16.70
2022-09-01T20:07:48.893Z,16.70
2022-09-01T20:11:05.277Z,16.70
2022-09-01T20:14:32.533Z,16.70
2022-09-01T20:17:37.348Z,16.70
2022-09-01T20:20:39.142Z,16.70
2022-09-01T20:23:59.188Z,16.70
2022-09-01T20:27:03.272Z,16.70
2022-09-01T20:30:12.360Z,16.80
2022-09-01T20:33:41.227Z,16.80
2022-09-01T20:36:43.593Z,16.80
2022-09-01T20:40:00.376Z,16.90
2022-09-01T20:43:19.626Z,16.90
2022-09-01T20:46:08.058Z,16.90
2022-09-01T20:48:57.135Z,17.00
2022-09-01T20:51:57.693Z,16.90
2022-09-01T20:55:19.594Z,16.90
2022-09-01T20:58:19.288Z,16.90
2022-09-01T21:01:37.877Z,16.90
2022-09-01T21:04:56.352Z,16.90
2022-09-01T21:08:16.042Z,16.90
2022-09-01T21:11:41.233Z,16.90
2022-09-01T21:14:50.812Z,16.90
2022-09-01T21:18:08.062Z,16.80
2022-09-01T21:21:12.453Z,16.80
2022-09-01T21:23:59.956Z,16.80
2022-09-01T21:26:49.259Z,16.70
2022-09-01T21:30:05.934Z,16.70
2022-09-01T21:32:54.337Z,16.70
2022-09-01T21:35:41.913Z,16.70
2022-09-01T21:38:30.188Z,16.70
2022-09-01T21:41:17.797Z,16.70
2022-09-01T21:44:05.327Z,16.60
2022-09-01T21:46:52.922Z,16.60
2022-09-01T21:49:41.022Z,16.60
2022-09-01T21:52:29.197Z,16.50
2022-09-01T21:55:22.527Z,16.50
2022-09-01T21:58:10.851Z,16.50
2022-09-01T22:00:58.525Z,16.40
2022-09-01T22:03:46.136Z,16.40
2022-09-01T22:06:34.993Z,16.40
2022-09-01T22:09:23.092Z,16.30
2022-09-01T22:12:11.032Z,16.30
2022-09-01T22:14:58.597Z,16.30
2022-09-01T22:17:47.067Z,16.30
2022-09-01T22:20:35.289Z,16.30
2022-09-01T22:23:22.943Z,16.30
2022-09-01T22:26:26.357Z,16.30
2022-09-01T22:29:14.298Z,16.30
2022-09-01T22:32:01.908Z,16.20
2022-09-01T22:34:49.523Z,16.30
2022-09-01T22:37:38.717Z,16.30
2022-09-01T22:40:26.297Z,16.30
2022-09-01T22:43:17.865Z,16.20
2022-09-01T22:46:06.582Z,16.20
2022-09-01T22:48:57.493Z,16.20
2022-09-01T22:51:45.412Z,16.20
2022-09-01T22:54:33.908Z,16.20
2022-09-01T22:57:21.892Z,16.20
2022-09-01T23:00:10.921Z,16.20
2022-09-01T23:02:59.047Z,16.20
2022-09-01T23:05:48.012Z,16.20
2022-09-01T23:08:36.303Z,16.30
2022-09-01T23:11:24.358Z,16.30
2022-09-01T23:14:12.092Z,16.30
2022-09-01T23:16:59.631Z,16.30
2022-09-01T23:19:47.789Z,16.20
2022-09-01T23:22:35.307Z,16.20
2022-09-01T23:25:24.147Z,16.20
2022-09-01T23:28:18.033Z,16.20
2022-09-01T23:31:10.783Z,16.20
2022-09-01T23:33:58.698Z,16.10
2022-09-01T23:36:46.836Z,16.10
2022-09-01T23:39:34.582Z,16.00
2022-09-01T23:42:23.382Z,16.00
2022-09-01T23:45:11.813Z,15.90
2022-09-01T23:47:59.348Z,15.90
2022-09-01T23:50:57.639Z,15.80
2022-09-01T23:53:46.862Z,15.80
2022-09-01T23:56:34.893Z,15.80
2022-09-01T23:59:27.666Z,15.70
